sensor_id;sensor_type;location;lat;lon;timestamp;pressure;altitude;pressure_sealevel;temperature;humidity
31538;BME280;18147;51.952;6.146;2023-11-21T00:00:36;101029.88;;;7.80;100.00
31538;BME280;18147;51.952;6.146;2023-11-21T00:03:01;101030.94;;;7.76;100.00
31538;BME280;18147;51.952;6.146;2023-11-21T00:05:27;101023.06;;;7.74;100.00
31538;BME280;18147;51.952;6.146;2023-11-21T00:07:52;101025.84;;;7.71;100.00
31538;BME280;18147;51.952;6.146;2023-11-21T00:10:18;101025.00;;;7.71;100.00
31538;BME280;18147;51.952;6.146;2023-11-21T00:12:43;101028.81;;;7.65;100.00
31538;BME280;18147;51.952;6.146;2023-11-21T00:15:09;101023.81;;;7.59;100.00
31538;BME280;18147;51.952;6.146;2023-11-21T00:17:38;101033.47;;;7.60;100.00
31538;BME280;18147;51.952;6.146;2023-11-21T00:20:06;101041.66;;;7.56;100.00
31538;BME280;18147;51.952;6.146;2023-11-21T00:22:35;101035.72;;;7.50;100.00
31538;BME280;18147;51.952;6.146;2023-11-21T00:25:01;101033.06;;;7.50;100.00
31538;BME280;18147;51.952;6.146;2023-11-21T00:27:29;101034.94;;;7.48;100.00
31538;BME280;18147;51.952;6.146;2023-11-21T00:29:54;101034.00;;;7.49;100.00
31538;BME280;18147;51.952;6.146;2023-11-21T00:32:20;101037.50;;;7.50;100.00
31538;BME280;18147;51.952;6.146;2023-11-21T00:34:45;101044.44;;;7.52;100.00
31538;BME280;18147;51.952;6.146;2023-11-21T00:37:12;101037.28;;;7.55;100.00
31538;BME280;18147;51.952;6.146;2023-11-21T00:39:37;101046.03;;;7.57;100.00
31538;BME280;18147;51.952;6.146;2023-11-21T00:42:03;101042.22;;;7.62;100.00
31538;BME280;18147;51.952;6.146;2023-11-21T00:44:30;101043.97;;;7.63;100.00
31538;BME280;18147;51.952;6.146;2023-11-21T00:46:55;101037.53;;;7.67;100.00
31538;BME280;18147;51.952;6.146;2023-11-21T00:49:21;101047.09;;;7.71;100.00
31538;BME280;18147;51.952;6.146;2023-11-21T00:51:48;101043.28;;;7.77;100.00
31538;BME280;18147;51.952;6.146;2023-11-21T00:54:13;101044.09;;;7.79;100.00
31538;BME280;18147;51.952;6.146;2023-11-21T00:56:42;101044.72;;;7.84;100.00
31538;BME280;18147;51.952;6.146;2023-11-21T00:59:08;101041.03;;;7.87;100.00
31538;BME280;18147;51.952;6.146;2023-11-21T01:01:33;101052.50;;;7.87;100.00
31538;BME280;18147;51.952;6.146;2023-11-21T01:03:59;101052.50;;;7.87;100.00
31538;BME280;18147;51.952;6.146;2023-11-21T01:06:24;101057.59;;;7.92;100.00
31538;BME280;18147;51.952;6.146;2023-11-21T01:08:49;101061.91;;;7.94;100.00
31538;BME280;18147;51.952;6.146;2023-11-21T01:11:15;101061.84;;;7.96;100.00
31538;BME280;18147;51.952;6.146;2023-11-21T01:13:42;101057.53;;;7.93;100.00
31538;BME280;18147;51.952;6.146;2023-11-21T01:16:08;101067.84;;;7.99;100.00
31538;BME280;18147;51.952;6.146;2023-11-21T01:18:35;101072.09;;;8.03;100.00
31538;BME280;18147;51.952;6.146;2023-11-21T01:21:00;101070.97;;;8.08;100.00
31538;BME280;18147;51.952;6.146;2023-11-21T01:23:26;101076.16;;;8.11;100.00
31538;BME280;18147;51.952;6.146;2023-11-21T01:25:52;101077.88;;;8.12;100.00
31538;BME280;18147;51.952;6.146;2023-11-21T01:28:18;101081.47;;;8.11;100.00
31538;BME280;18147;51.952;6.146;2023-11-21T01:30:45;101084.84;;;8.14;100.00
31538;BME280;18147;51.952;6.146;2023-11-21T01:33:11;101091.78;;;8.17;100.00
31538;BME280;18147;51.952;6.146;2023-11-21T01:35:36;101096.78;;;8.23;100.00
31538;BME280;18147;51.952;6.146;2023-11-21T01:38:02;101096.00;;;8.21;100.00
31538;BME280;18147;51.952;6.146;2023-11-21T01:40:27;101094.94;;;8.25;100.00
31538;BME280;18147;51.952;6.146;2023-11-21T01:42:54;101098.59;;;8.22;100.00
31538;BME280;18147;51.952;6.146;2023-11-21T01:45:19;101095.66;;;8.28;100.00
31538;BME280;18147;51.952;6.146;2023-11-21T01:47:45;101087.50;;;8.31;100.00
31538;BME280;18147;51.952;6.146;2023-11-21T01:50:15;101091.81;;;8.34;100.00
31538;BME280;18147;51.952;6.146;2023-11-21T01:52:43;101093.53;;;8.35;100.00
31538;BME280;18147;51.952;6.146;2023-11-21T01:55:10;101095.28;;;8.36;100.00
31538;BME280;18147;51.952;6.146;2023-11-21T01:57:36;101094.28;;;8.39;100.00
31538;BME280;18147;51.952;6.146;2023-11-21T02:00:05;101090.72;;;8.38;100.00
31538;BME280;18147;51.952;6.146;2023-11-21T02:02:49;101085.38;;;8.40;100.00
31538;BME280;18147;51.952;6.146;2023-11-21T02:05:15;101099.06;;;8.30;100.00
31538;BME280;18147;51.952;6.146;2023-11-21T02:07:44;101097.34;;;8.29;100.00
31538;BME280;18147;51.952;6.146;2023-11-21T02:10:11;101098.13;;;8.31;100.00
31538;BME280;18147;51.952;6.146;2023-11-21T02:12:41;101106.81;;;8.35;100.00
31538;BME280;18147;51.952;6.146;2023-11-21T02:15:08;101107.91;;;8.31;100.00
31538;BME280;18147;51.952;6.146;2023-11-21T02:17:43;101106.81;;;8.35;100.00
31538;BME280;18147;51.952;6.146;2023-11-21T02:20:19;101106.97;;;8.32;100.00
31538;BME280;18147;51.952;6.146;2023-11-21T02:22:50;101099.13;;;8.12;100.00
31538;BME280;18147;51.952;6.146;2023-11-21T02:25:21;101117.00;;;8.08;100.00
31538;BME280;18147;51.952;6.146;2023-11-21T02:27:46;101118.22;;;8.20;100.00
31538;BME280;18147;51.952;6.146;2023-11-21T02:30:14;101126.81;;;8.25;100.00
31538;BME280;18147;51.952;6.146;2023-11-21T02:32:40;101128.59;;;8.24;100.00
31538;BME280;18147;51.952;6.146;2023-11-21T02:35:08;101124.50;;;8.17;100.00
31538;BME280;18147;51.952;6.146;2023-11-21T02:37:33;101127.13;;;8.19;100.00
31538;BME280;18147;51.952;6.146;2023-11-21T02:40:01;101123.97;;;8.11;100.00
31538;BME280;18147;51.952;6.146;2023-11-21T02:42:29;101123.31;;;8.05;100.00
31538;BME280;18147;51.952;6.146;2023-11-21T02:44:54;101130.84;;;8.15;100.00
31538;BME280;18147;51.952;6.146;2023-11-21T02:47:20;101130.78;;;8.16;100.00
31538;BME280;18147;51.952;6.146;2023-11-21T02:49:45;101135.72;;;8.24;100.00
31538;BME280;18147;51.952;6.146;2023-11-21T02:52:11;101129.94;;;8.33;100.00
31538;BME280;18147;51.952;6.146;2023-11-21T02:54:36;101134.34;;;8.34;100.00
31538;BME280;18147;51.952;6.146;2023-11-21T02:57:02;101136.13;;;8.34;100.00
31538;BME280;18147;51.952;6.146;2023-11-21T02:59:29;101139.66;;;8.34;100.00
31538;BME280;18147;51.952;6.146;2023-11-21T03:01:54;101144.97;;;8.34;100.00
31538;BME280;18147;51.952;6.146;2023-11-21T03:04:23;101146.47;;;8.40;100.00
31538;BME280;18147;51.952;6.146;2023-11-21T03:06:48;101151.50;;;8.46;100.00
31538;BME280;18147;51.952;6.146;2023-11-21T03:09:14;101158.38;;;8.50;100.00
31538;BME280;18147;51.952;6.146;2023-11-21T03:11:41;101160.47;;;8.43;100.00
31538;BME280;18147;51.952;6.146;2023-11-21T03:14:07;101163.91;;;8.45;100.00
31538;BME280;18147;51.952;6.146;2023-11-21T03:16:32;101171.09;;;8.43;100.00
31538;BME280;18147;51.952;6.146;2023-11-21T03:18:58;101169.78;;;8.52;100.00
31538;BME280;18147;51.952;6.146;2023-11-21T03:21:24;101171.56;;;8.51;100.00
31538;BME280;18147;51.952;6.146;2023-11-21T03:23:50;101172.38;;;8.53;100.00
31538;BME280;18147;51.952;6.146;2023-11-21T03:26:16;101172.94;;;8.60;100.00
31538;BME280;18147;51.952;6.146;2023-11-21T03:28:42;101167.63;;;8.60;100.00
31538;BME280;18147;51.952;6.146;2023-11-21T03:31:07;101175.09;;;8.52;100.00
31538;BME280;18147;51.952;6.146;2023-11-21T03:33:34;101174.09;;;8.54;100.00
31538;BME280;18147;51.952;6.146;2023-11-21T03:36:00;101180.03;;;8.60;100.00
31538;BME280;18147;51.952;6.146;2023-11-21T03:38:26;101185.41;;;8.58;100.00
31538;BME280;18147;51.952;6.146;2023-11-21T03:40:51;101183.66;;;8.59;100.00
31538;BME280;18147;51.952;6.146;2023-11-21T03:43:17;101188.88;;;8.60;100.00
31538;BME280;18147;51.952;6.146;2023-11-21T03:45:42;101191.44;;;8.62;100.00
31538;BME280;18147;51.952;6.146;2023-11-21T03:48:09;101186.84;;;8.65;100.00
31538;BME280;18147;51.952;6.146;2023-11-21T03:50:37;101190.59;;;8.61;100.00
31538;BME280;18147;51.952;6.146;2023-11-21T03:53:02;101196.63;;;8.65;100.00
31538;BME280;18147;51.952;6.146;2023-11-21T03:55:29;101190.06;;;8.72;100.00
31538;BME280;18147;51.952;6.146;2023-11-21T03:57:57;101190.69;;;8.60;100.00
31538;BME280;18147;51.952;6.146;2023-11-21T04:00:22;101193.13;;;8.64;100.00
31538;BME280;18147;51.952;6.146;2023-11-21T04:02:48;101196.94;;;8.59;100.00
31538;BME280;18147;51.952;6.146;2023-11-21T04:05:13;101200.91;;;8.67;100.00
31538;BME280;18147;51.952;6.146;2023-11-21T04:07:39;101194.28;;;8.76;100.00
31538;BME280;18147;51.952;6.146;2023-11-21T04:10:06;101194.91;;;8.64;100.00
31538;BME280;18147;51.952;6.146;2023-11-21T04:12:34;101207.09;;;8.68;100.00
31538;BME280;18147;51.952;6.146;2023-11-21T04:14:59;101200.69;;;8.72;100.00
31538;BME280;18147;51.952;6.146;2023-11-21T04:17:25;101204.06;;;8.75;100.00
31538;BME280;18147;51.952;6.146;2023-11-21T04:19:50;101202.19;;;8.77;100.00
31538;BME280;18147;51.952;6.146;2023-11-21T04:22:16;101204.59;;;8.82;100.00
31538;BME280;18147;51.952;6.146;2023-11-21T04:24:41;101209.78;;;8.85;100.00
31538;BME280;18147;51.952;6.146;2023-11-21T04:27:07;101208.34;;;8.78;100.00
31538;BME280;18147;51.952;6.146;2023-11-21T04:29:33;101220.88;;;8.76;100.00
31538;BME280;18147;51.952;6.146;2023-11-21T04:31:58;101228.13;;;8.72;100.00
31538;BME280;18147;51.952;6.146;2023-11-21T04:34:24;101231.66;;;8.73;100.00
31538;BME280;18147;51.952;6.146;2023-11-21T04:36:50;101228.31;;;8.69;100.00
31538;BME280;18147;51.952;6.146;2023-11-21T04:39:15;101227.50;;;8.67;100.00
31538;BME280;18147;51.952;6.146;2023-11-21T04:41:41;101238.22;;;8.66;100.00
31538;BME280;18147;51.952;6.146;2023-11-21T04:44:06;101245.13;;;8.70;100.00
31538;BME280;18147;51.952;6.146;2023-11-21T04:46:32;101249.34;;;8.74;100.00
31538;BME280;18147;51.952;6.146;2023-11-21T04:48:58;101248.00;;;8.82;100.00
31538;BME280;18147;51.952;6.146;2023-11-21T04:51:24;101247.59;;;8.73;100.00
31538;BME280;18147;51.952;6.146;2023-11-21T04:53:49;101254.66;;;8.74;100.00
31538;BME280;18147;51.952;6.146;2023-11-21T04:56:15;101260.25;;;8.68;100.00
31538;BME280;18147;51.952;6.146;2023-11-21T04:58:41;101265.53;;;8.69;100.00
31538;BME280;18147;51.952;6.146;2023-11-21T05:01:07;101276.84;;;8.73;100.00
31538;BME280;18147;51.952;6.146;2023-11-21T05:03:33;101283.28;;;8.69;100.00
31538;BME280;18147;51.952;6.146;2023-11-21T05:05:59;101275.03;;;8.73;100.00
31538;BME280;18147;51.952;6.146;2023-11-21T05:08:25;101283.91;;;8.74;100.00
31538;BME280;18147;51.952;6.146;2023-11-21T05:10:51;101287.44;;;8.74;100.00
31538;BME280;18147;51.952;6.146;2023-11-21T05:13:17;101289.22;;;8.74;100.00
31538;BME280;18147;51.952;6.146;2023-11-21T05:15:44;101289.28;;;8.72;100.00
31538;BME280;18147;51.952;6.146;2023-11-21T05:18:09;101289.69;;;8.82;100.00
31538;BME280;18147;51.952;6.146;2023-11-21T05:20:35;101292.84;;;8.90;100.00
31538;BME280;18147;51.952;6.146;2023-11-21T05:23:02;101289.66;;;8.84;100.00
31538;BME280;18147;51.952;6.146;2023-11-21T05:25:27;101289.06;;;8.77;100.00
31538;BME280;18147;51.952;6.146;2023-11-21T05:27:53;101298.81;;;8.95;100.00
31538;BME280;18147;51.952;6.146;2023-11-21T05:30:21;101293.16;;;8.84;100.00
31538;BME280;18147;51.952;6.146;2023-11-21T05:32:47;101302.88;;;8.85;100.00
31538;BME280;18147;51.952;6.146;2023-11-21T05:35:12;101309.19;;;8.82;100.00
31538;BME280;18147;51.952;6.146;2023-11-21T05:37:42;101309.97;;;8.85;100.00
31538;BME280;18147;51.952;6.146;2023-11-21T05:40:08;101319.59;;;8.87;100.00
31538;BME280;18147;51.952;6.146;2023-11-21T05:42:34;101318.81;;;8.85;100.00
31538;BME280;18147;51.952;6.146;2023-11-21T05:45:00;101317.47;;;8.76;100.00
31538;BME280;18147;51.952;6.146;2023-11-21T05:47:40;101330.41;;;8.84;100.00
31538;BME280;18147;51.952;6.146;2023-11-21T05:50:08;101326.72;;;8.87;100.00
31538;BME280;18147;51.952;6.146;2023-11-21T05:52:38;101326.78;;;8.85;100.00
31538;BME280;18147;51.952;6.146;2023-11-21T05:55:05;101335.31;;;8.92;100.00
31538;BME280;18147;51.952;6.146;2023-11-21T05:57:37;101332.53;;;8.95;100.00
31538;BME280;18147;51.952;6.146;2023-11-21T06:00:13;101336.50;;;8.86;100.00
31538;BME280;18147;51.952;6.146;2023-11-21T06:02:51;101330.88;;;8.92;100.00
31538;BME280;18147;51.952;6.146;2023-11-21T06:05:23;101337.25;;;8.88;100.00
31538;BME280;18147;51.952;6.146;2023-11-21T06:07:50;101340.94;;;8.86;100.00
31538;BME280;18147;51.952;6.146;2023-11-21T06:10:15;101343.47;;;8.89;100.00
31538;BME280;18147;51.952;6.146;2023-11-21T06:12:43;101352.31;;;8.89;100.00
31538;BME280;18147;51.952;6.146;2023-11-21T06:15:09;101350.22;;;8.96;100.00
31538;BME280;18147;51.952;6.146;2023-11-21T06:17:39;101352.56;;;9.02;100.00
31538;BME280;18147;51.952;6.146;2023-11-21T06:20:06;101345.09;;;8.91;100.00
31538;BME280;18147;51.952;6.146;2023-11-21T06:22:38;101352.09;;;8.94;100.00
31538;BME280;18147;51.952;6.146;2023-11-21T06:25:05;101353.00;;;8.93;100.00
31538;BME280;18147;51.952;6.146;2023-11-21T06:27:32;101355.97;;;8.87;100.00
31538;BME280;18147;51.952;6.146;2023-11-21T06:29:58;101361.91;;;8.92;100.00
31538;BME280;18147;51.952;6.146;2023-11-21T06:32:23;101363.50;;;8.96;100.00
31538;BME280;18147;51.952;6.146;2023-11-21T06:34:49;101368.97;;;8.93;100.00
31538;BME280;18147;51.952;6.146;2023-11-21T06:37:15;101374.22;;;8.94;100.00
31538;BME280;18147;51.952;6.146;2023-11-21T06:39:40;101377.56;;;8.98;100.00
31538;BME280;18147;51.952;6.146;2023-11-21T06:42:07;101375.09;;;8.95;100.00
31538;BME280;18147;51.952;6.146;2023-11-21T06:44:32;101376.38;;;8.86;100.00
31538;BME280;18147;51.952;6.146;2023-11-21T06:46:58;101381.25;;;8.95;100.00
31538;BME280;18147;51.952;6.146;2023-11-21T06:49:24;101384.00;;;8.94;100.00
31538;BME280;18147;51.952;6.146;2023-11-21T06:51:50;101385.50;;;8.99;100.00
31538;BME280;18147;51.952;6.146;2023-11-21T06:54:15;101384.06;;;8.92;100.00
31538;BME280;18147;51.952;6.146;2023-11-21T06:56:41;101390.81;;;8.99;100.00
31538;BME280;18147;51.952;6.146;2023-11-21T06:59:06;101389.25;;;8.95;100.00
31538;BME280;18147;51.952;6.146;2023-11-21T07:01:32;101397.22;;;8.95;100.00
31538;BME280;18147;51.952;6.146;2023-11-21T07:04:04;101408.00;;;8.92;100.00
31538;BME280;18147;51.952;6.146;2023-11-21T07:06:30;101403.28;;;8.99;100.00
31538;BME280;18147;51.952;6.146;2023-11-21T07:08:56;101408.34;;;9.03;100.00
31538;BME280;18147;51.952;6.146;2023-11-21T07:11:22;101406.31;;;9.08;100.00
31538;BME280;18147;51.952;6.146;2023-11-21T07:13:47;101407.22;;;9.09;100.00
31538;BME280;18147;51.952;6.146;2023-11-21T07:16:13;101404.78;;;9.04;100.00
31538;BME280;18147;51.952;6.146;2023-11-21T07:18:40;101410.09;;;9.04;100.00
31538;BME280;18147;51.952;6.146;2023-11-21T07:21:05;101418.41;;;8.97;100.00
31538;BME280;18147;51.952;6.146;2023-11-21T07:23:31;101430.44;;;9.05;100.00
31538;BME280;18147;51.952;6.146;2023-11-21T07:25:56;101435.66;;;9.07;100.00
31538;BME280;18147;51.952;6.146;2023-11-21T07:28:24;101439.19;;;9.07;100.00
31538;BME280;18147;51.952;6.146;2023-11-21T07:30:49;101443.44;;;9.12;100.00
31538;BME280;18147;51.952;6.146;2023-11-21T07:33:15;101446.09;;;9.12;100.00
31538;BME280;18147;51.952;6.146;2023-11-21T07:35:40;101454.94;;;9.12;100.00
31538;BME280;18147;51.952;6.146;2023-11-21T07:38:05;101457.31;;;8.99;100.00
31538;BME280;18147;51.952;6.146;2023-11-21T07:40:31;101472.34;;;9.00;100.00
31538;BME280;18147;51.952;6.146;2023-11-21T07:42:57;101470.91;;;9.12;100.00
31538;BME280;18147;51.952;6.146;2023-11-21T07:45:23;101464.59;;;9.15;100.00
31538;BME280;18147;51.952;6.146;2023-11-21T07:47:48;101474.50;;;9.11;100.00
31538;BME280;18147;51.952;6.146;2023-11-21T07:50:14;101470.63;;;8.99;100.00
31538;BME280;18147;51.952;6.146;2023-11-21T07:52:39;101478.03;;;9.12;100.00
31538;BME280;18147;51.952;6.146;2023-11-21T07:55:05;101477.16;;;9.11;100.00
31538;BME280;18147;51.952;6.146;2023-11-21T07:57:30;101485.28;;;9.08;100.00
31538;BME280;18147;51.952;6.146;2023-11-21T07:59:56;101478.97;;;9.11;100.00
31538;BME280;18147;51.952;6.146;2023-11-21T08:02:22;101482.47;;;9.11;100.00
31538;BME280;18147;51.952;6.146;2023-11-21T08:04:47;101487.81;;;9.11;100.00
31538;BME280;18147;51.952;6.146;2023-11-21T08:07:15;101495.13;;;9.06;100.00
31538;BME280;18147;51.952;6.146;2023-11-21T08:09:42;101505.34;;;9.15;100.00
31538;BME280;18147;51.952;6.146;2023-11-21T08:12:07;101504.06;;;9.24;100.00
31538;BME280;18147;51.952;6.146;2023-11-21T08:14:33;101510.47;;;9.20;100.00
31538;BME280;18147;51.952;6.146;2023-11-21T08:16:58;101508.59;;;9.22;100.00
31538;BME280;18147;51.952;6.146;2023-11-21T08:19:24;101509.44;;;9.22;100.00
31538;BME280;18147;51.952;6.146;2023-11-21T08:21:52;101520.38;;;9.35;100.00
31538;BME280;18147;51.952;6.146;2023-11-21T08:24:20;101519.22;;;9.41;100.00
31538;BME280;18147;51.952;6.146;2023-11-21T08:26:45;101511.88;;;9.46;100.00
31538;BME280;18147;51.952;6.146;2023-11-21T08:29:11;101512.81;;;9.45;100.00
31538;BME280;18147;51.952;6.146;2023-11-21T08:31:37;101513.53;;;9.48;100.00
31538;BME280;18147;51.952;6.146;2023-11-21T08:34:03;101507.41;;;9.46;100.00
31538;BME280;18147;51.952;6.146;2023-11-21T08:36:29;101512.88;;;9.43;100.00
31538;BME280;18147;51.952;6.146;2023-11-21T08:38:56;101529.78;;;9.42;100.00
31538;BME280;18147;51.952;6.146;2023-11-21T08:41:22;101540.78;;;9.53;100.00
31538;BME280;18147;51.952;6.146;2023-11-21T08:43:49;101534.47;;;9.56;100.00
31538;BME280;18147;51.952;6.146;2023-11-21T08:46:15;101533.59;;;9.55;100.00
31538;BME280;18147;51.952;6.146;2023-11-21T08:48:42;101535.41;;;9.55;100.00
31538;BME280;18147;51.952;6.146;2023-11-21T08:51:10;101540.94;;;9.50;100.00
31538;BME280;18147;51.952;6.146;2023-11-21T08:53:37;101546.91;;;9.55;100.00
31538;BME280;18147;51.952;6.146;2023-11-21T08:56:03;101542.81;;;9.48;100.00
31538;BME280;18147;51.952;6.146;2023-11-21T08:58:30;101552.38;;;9.52;100.00
31538;BME280;18147;51.952;6.146;2023-11-21T09:00:57;101545.19;;;9.54;100.00
31538;BME280;18147;51.952;6.146;2023-11-21T09:03:23;101546.41;;;9.66;100.00
31538;BME280;18147;51.952;6.146;2023-11-21T09:05:48;101548.97;;;9.68;100.00
31538;BME280;18147;51.952;6.146;2023-11-21T09:08:13;101556.09;;;9.67;100.00
31538;BME280;18147;51.952;6.146;2023-11-21T09:10:39;101549.84;;;9.68;100.00
31538;BME280;18147;51.952;6.146;2023-11-21T09:13:05;101558.84;;;9.84;100.00
31538;BME280;18147;51.952;6.146;2023-11-21T09:15:30;101556.59;;;9.94;100.00
31538;BME280;18147;51.952;6.146;2023-11-21T09:17:56;101569.16;;;10.09;100.00
31538;BME280;18147;51.952;6.146;2023-11-21T09:20:21;101558.00;;;10.19;100.00
31538;BME280;18147;51.952;6.146;2023-11-21T09:22:48;101562.16;;;10.07;100.00
31538;BME280;18147;51.952;6.146;2023-11-21T09:25:14;101558.50;;;10.09;100.00
31538;BME280;18147;51.952;6.146;2023-11-21T09:27:40;101570.28;;;10.04;100.00
31538;BME280;18147;51.952;6.146;2023-11-21T09:30:06;101576.38;;;9.89;100.00
31538;BME280;18147;51.952;6.146;2023-11-21T09:32:35;101583.88;;;9.99;100.00
31538;BME280;18147;51.952;6.146;2023-11-21T09:35:03;101582.31;;;10.12;100.00
31538;BME280;18147;51.952;6.146;2023-11-21T09:37:28;101588.66;;;10.10;100.00
31538;BME280;18147;51.952;6.146;2023-11-21T09:39:54;101591.03;;;10.16;100.00
31538;BME280;18147;51.952;6.146;2023-11-21T09:42:26;101600.59;;;9.84;100.00
31538;BME280;18147;51.952;6.146;2023-11-21T09:47:54;101604.69;;;9.91;100.00
31538;BME280;18147;51.952;6.146;2023-11-21T09:50:23;101613.53;;;9.92;100.00
31538;BME280;18147;51.952;6.146;2023-11-21T09:52:57;101614.25;;;9.95;100.00
31538;BME280;18147;51.952;6.146;2023-11-21T09:55:25;101613.88;;;10.03;100.00
31538;BME280;18147;51.952;6.146;2023-11-21T09:57:53;101626.63;;;9.96;100.00
31538;BME280;18147;51.952;6.146;2023-11-21T10:00:19;101622.28;;;10.12;100.00
31538;BME280;18147;51.952;6.146;2023-11-21T10:02:49;101628.25;;;10.18;100.00
31538;BME280;18147;51.952;6.146;2023-11-21T10:05:15;101633.47;;;10.38;100.00
31538;BME280;18147;51.952;6.146;2023-11-21T10:07:43;101632.25;;;10.45;100.00
31538;BME280;18147;51.952;6.146;2023-11-21T10:10:10;101637.03;;;10.56;100.00
31538;BME280;18147;51.952;6.146;2023-11-21T10:12:36;101635.25;;;10.56;100.00
31538;BME280;18147;51.952;6.146;2023-11-21T10:15:03;101636.84;;;10.24;100.00
31538;BME280;18147;51.952;6.146;2023-11-21T10:17:31;101646.56;;;10.25;100.00
31538;BME280;18147;51.952;6.146;2023-11-21T10:20:04;101652.53;;;10.30;100.00
31538;BME280;18147;51.952;6.146;2023-11-21T10:22:38;101667.03;;;10.25;100.00
31538;BME280;18147;51.952;6.146;2023-11-21T10:25:04;101669.00;;;10.38;100.00
31538;BME280;18147;51.952;6.146;2023-11-21T10:27:33;101672.28;;;10.26;100.00
31538;BME280;18147;51.952;6.146;2023-11-21T10:30:03;101669.53;;;10.28;100.00
31538;BME280;18147;51.952;6.146;2023-11-21T10:32:29;101660.88;;;10.23;100.00
31538;BME280;18147;51.952;6.146;2023-11-21T10:34:59;101648.25;;;10.45;100.00
31538;BME280;18147;51.952;6.146;2023-11-21T10:37:32;101662.84;;;10.73;100.00
31538;BME280;18147;51.952;6.146;2023-11-21T10:40:01;101660.09;;;10.57;100.00
31538;BME280;18147;51.952;6.146;2023-11-21T10:42:26;101669.75;;;10.77;100.00
31538;BME280;18147;51.952;6.146;2023-11-21T10:44:55;101679.97;;;10.86;100.00
31538;BME280;18147;51.952;6.146;2023-11-21T10:47:21;101676.38;;;10.70;100.00
31538;BME280;18147;51.952;6.146;2023-11-21T10:49:51;101677.84;;;10.75;100.00
31538;BME280;18147;51.952;6.146;2023-11-21T10:52:19;101680.13;;;10.66;100.00
31538;BME280;18147;51.952;6.146;2023-11-21T10:54:45;101680.88;;;10.50;100.00
31538;BME280;18147;51.952;6.146;2023-11-21T10:57:14;101690.28;;;10.40;100.00
31538;BME280;18147;51.952;6.146;2023-11-21T10:59:46;101690.84;;;10.47;100.00
31538;BME280;18147;51.952;6.146;2023-11-21T11:02:25;101695.09;;;10.51;100.00
31538;BME280;18147;51.952;6.146;2023-11-21T11:04:53;101700.84;;;10.42;100.00
31538;BME280;18147;51.952;6.146;2023-11-21T11:07:23;101689.34;;;10.41;100.00
31538;BME280;18147;51.952;6.146;2023-11-21T11:09:50;101697.22;;;10.25;100.00
31538;BME280;18147;51.952;6.146;2023-11-21T11:12:16;101713.97;;;10.08;100.00
31538;BME280;18147;51.952;6.146;2023-11-21T11:14:42;101736.38;;;10.04;100.00
31538;BME280;18147;51.952;6.146;2023-11-21T11:17:10;101745.09;;;10.08;100.00
31538;BME280;18147;51.952;6.146;2023-11-21T11:19:36;101751.13;;;10.11;100.00
31538;BME280;18147;51.952;6.146;2023-11-21T11:22:24;101754.38;;;10.18;100.00
31538;BME280;18147;51.952;6.146;2023-11-21T11:33:23;101784.97;;;10.30;100.00
31538;BME280;18147;51.952;6.146;2023-11-21T11:38:48;101777.84;;;10.30;100.00
31538;BME280;18147;51.952;6.146;2023-11-21T11:41:28;101775.09;;;10.32;100.00
31538;BME280;18147;51.952;6.146;2023-11-21T11:43:56;101777.09;;;10.27;100.00
31538;BME280;18147;51.952;6.146;2023-11-21T11:46:42;101786.69;;;10.31;100.00
31538;BME280;18147;51.952;6.146;2023-11-21T11:49:10;101790.94;;;10.35;100.00
31538;BME280;18147;51.952;6.146;2023-11-21T11:51:36;101795.00;;;10.23;100.00
31538;BME280;18147;51.952;6.146;2023-11-21T11:54:02;101799.09;;;10.32;100.00
31538;BME280;18147;51.952;6.146;2023-11-21T11:56:33;101808.91;;;10.11;100.00
31538;BME280;18147;51.952;6.146;2023-11-21T11:59:04;101816.25;;;10.06;100.00
31538;BME280;18147;51.952;6.146;2023-11-21T12:01:32;101833.19;;;10.05;100.00
31538;BME280;18147;51.952;6.146;2023-11-21T12:06:36;101830.84;;;9.97;100.00
31538;BME280;18147;51.952;6.146;2023-11-21T12:09:02;101832.66;;;9.76;100.00
31538;BME280;18147;51.952;6.146;2023-11-21T12:11:31;101830.94;;;9.96;100.00
31538;BME280;18147;51.952;6.146;2023-11-21T12:13:58;101829.19;;;9.95;100.00
31538;BME280;18147;51.952;6.146;2023-11-21T12:16:25;101830.53;;;9.84;100.00
31538;BME280;18147;51.952;6.146;2023-11-21T12:18:53;101836.47;;;9.91;100.00
31538;BME280;18147;51.952;6.146;2023-11-21T12:21:20;101837.19;;;9.95;100.00
31538;BME280;18147;51.952;6.146;2023-11-21T12:23:45;101834.44;;;9.96;100.00
31538;BME280;18147;51.952;6.146;2023-11-21T12:26:13;101841.78;;;9.91;100.00
31538;BME280;18147;51.952;6.146;2023-11-21T12:28:39;101844.56;;;9.88;100.00
31538;BME280;18147;51.952;6.146;2023-11-21T12:31:04;101850.31;;;9.99;100.00
31538;BME280;18147;51.952;6.146;2023-11-21T12:33:32;101854.53;;;9.84;100.00
31538;BME280;18147;51.952;6.146;2023-11-21T12:35:58;101859.69;;;9.88;100.00
31538;BME280;18147;51.952;6.146;2023-11-21T12:38:24;101869.28;;;9.92;100.00
31538;BME280;18147;51.952;6.146;2023-11-21T12:40:50;101870.75;;;9.78;100.00
31538;BME280;18147;51.952;6.146;2023-11-21T12:43:17;101872.06;;;9.89;100.00
31538;BME280;18147;51.952;6.146;2023-11-21T12:45:43;101868.25;;;9.75;100.00
31538;BME280;18147;51.952;6.146;2023-11-21T12:48:09;101879.66;;;9.98;100.00
31538;BME280;18147;51.952;6.146;2023-11-21T12:50:37;101880.34;;;10.03;100.00
31538;BME280;18147;51.952;6.146;2023-11-21T12:53:05;101867.28;;;9.97;100.00
31538;BME280;18147;51.952;6.146;2023-11-21T12:55:34;101867.50;;;9.92;100.00
31538;BME280;18147;51.952;6.146;2023-11-21T12:58:04;101875.56;;;9.91;100.00
31538;BME280;18147;51.952;6.146;2023-11-21T13:03:07;101876.53;;;9.88;100.00
31538;BME280;18147;51.952;6.146;2023-11-21T13:05:35;101882.53;;;9.93;100.00